createdAt,value
2022-12-08T00:01:19.873Z,30.42
2022-12-08T00:03:47.482Z,28.52
2022-12-08T00:06:52.758Z,28.83
2022-12-08T00:09:39.651Z,28.75
2022-12-08T00:12:16.549Z,29.42
2022-12-08T00:14:45.958Z,28.77
2022-12-08T00:17:15.341Z,29.77
2022-12-08T00:19:43.443Z,30.27
2022-12-08T00:22:12.293Z,28.38
2022-12-08T00:24:40.492Z,29.00
2022-12-08T00:27:09.121Z,28.27
2022-12-08T00:29:36.218Z,32.50
2022-12-08T00:32:03.831Z,30.33
2022-12-08T00:34:31.880Z,30.88
2022-12-08T00:36:59.898Z,30.55
2022-12-08T00:39:26.992Z,31.92
2022-12-08T00:42:12.229Z,28.15
2022-12-08T00:44:41.084Z,27.58
2022-12-08T00:47:08.168Z,29.27
2022-12-08T00:49:35.386Z,28.90
2022-12-08T00:52:02.876Z,29.17
2022-12-08T00:54:30.024Z,30.55
2022-12-08T00:56:57.101Z,28.88
2022-12-08T00:59:24.332Z,30.83
2022-12-08T01:01:51.547Z,28.38
2022-12-08T01:04:19.693Z,30.92
2022-12-08T01:06:47.650Z,30.42
2022-12-08T01:09:16.155Z,27.30
2022-12-08T01:11:44.576Z,30.08
2022-12-08T01:14:12.995Z,29.13
2022-12-08T01:16:41.521Z,29.75
2022-12-08T01:19:14.078Z,29.42
2022-12-08T01:21:42.243Z,31.45
2022-12-08T01:24:19.293Z,29.02
2022-12-08T01:26:47.607Z,30.80
2022-12-08T01:29:15.026Z,29.98
2022-12-08T01:31:42.726Z,30.55
2022-12-08T01:34:11.113Z,32.45
2022-12-08T01:36:39.239Z,28.85
2022-12-08T01:39:14.295Z,32.75
2022-12-08T01:41:41.740Z,30.17
2022-12-08T01:44:08.847Z,34.03
2022-12-08T01:46:38.076Z,31.85
2022-12-08T01:49:06.844Z,33.20
2022-12-08T01:51:42.778Z,31.83
2022-12-08T01:54:12.302Z,30.27
2022-12-08T01:56:47.274Z,31.05
2022-12-08T01:59:14.682Z,30.42
2022-12-08T02:01:41.824Z,32.05
2022-12-08T02:04:10.265Z,31.05
2022-12-08T02:06:43.861Z,30.73
2022-12-08T02:09:11.847Z,30.83
2022-12-08T02:11:38.942Z,34.67
2022-12-08T02:14:08.280Z,30.40
2022-12-08T02:16:48.903Z,31.27
2022-12-08T02:19:34.473Z,30.45
2022-12-08T02:22:10.386Z,32.65
2022-12-08T02:24:44.426Z,31.50
2022-12-08T02:27:40.309Z,32.97
2022-12-08T02:30:38.416Z,33.72
2022-12-08T02:33:36.402Z,33.45
2022-12-08T02:36:23.474Z,34.95
2022-12-08T02:39:08.836Z,32.42
2022-12-08T02:42:12.709Z,29.52
2022-12-08T02:44:47.197Z,33.13
2022-12-08T02:47:18.659Z,30.33
2022-12-08T02:49:46.539Z,31.20
2022-12-08T02:52:13.565Z,30.52
2022-12-08T02:54:45.128Z,30.05
2022-12-08T02:57:43.167Z,31.42
2022-12-08T03:00:19.995Z,32.65
2022-12-08T03:03:11.266Z,32.03
2022-12-08T03:06:06.606Z,31.75
2022-12-08T03:09:14.182Z,32.38
2022-12-08T03:12:25.263Z,30.52
2022-12-08T03:14:55.236Z,31.85
2022-12-08T03:17:26.243Z,31.17
2022-12-08T03:19:54.509Z,32.22
2022-12-08T03:22:25.937Z,29.42
2022-12-08T03:24:54.057Z,29.05
2022-12-08T03:27:24.828Z,31.35
2022-12-08T03:29:54.650Z,31.15
2022-12-08T03:32:54.111Z,30.50
2022-12-08T03:35:25.906Z,27.45
2022-12-08T03:38:02.851Z,29.80
2022-12-08T03:40:30.016Z,29.90
2022-12-08T03:42:57.145Z,31.50
2022-12-08T03:45:24.315Z,30.92
2022-12-08T03:47:51.660Z,30.70
2022-12-08T03:50:18.862Z,31.73
2022-12-08T03:52:45.950Z,31.17
2022-12-08T03:55:13.197Z,31.67
2022-12-08T03:57:40.514Z,31.27
2022-12-08T04:00:12.910Z,30.80
2022-12-08T04:02:40.067Z,34.28
2022-12-08T04:05:07.536Z,34.70
2022-12-08T04:07:34.637Z,36.65
2022-12-08T04:10:02.112Z,31.75
2022-12-08T04:12:29.558Z,32.83
2022-12-08T04:14:56.658Z,31.42
2022-12-08T04:17:23.738Z,31.77
2022-12-08T04:19:50.811Z,32.47
2022-12-08T04:22:17.941Z,31.63
2022-12-08T04:24:45.040Z,32.75
2022-12-08T04:27:12.135Z,33.97
2022-12-08T04:29:39.208Z,32.65
2022-12-08T04:32:06.306Z,31.80
2022-12-08T04:34:33.802Z,33.22
2022-12-08T04:37:00.861Z,31.65
2022-12-08T04:39:27.975Z,31.58
2022-12-08T04:41:55.137Z,32.20
2022-12-08T04:44:23.357Z,31.15
2022-12-08T04:46:50.473Z,32.45
2022-12-08T04:49:17.653Z,31.50
2022-12-08T04:51:44.751Z,30.30
2022-12-08T04:54:11.833Z,32.92
2022-12-08T04:56:38.957Z,32.33
2022-12-08T04:59:06.151Z,31.52
2022-12-08T05:01:33.345Z,33.72
2022-12-08T05:04:00.580Z,30.65
2022-12-08T05:06:27.687Z,32.00
2022-12-08T05:08:54.878Z,31.92
2022-12-08T05:11:21.955Z,31.17
2022-12-08T05:13:49.064Z,32.35
2022-12-08T05:16:16.730Z,34.38
2022-12-08T05:18:44.135Z,33.90
2022-12-08T05:21:11.540Z,34.05
2022-12-08T05:23:38.715Z,37.08
2022-12-08T05:26:06.149Z,35.85
2022-12-08T05:28:42.664Z,36.35
2022-12-08T05:31:15.131Z,36.63
2022-12-08T05:33:43.704Z,39.20
2022-12-08T05:36:13.577Z,35.92
2022-12-08T05:38:40.873Z,38.00
2022-12-08T05:41:09.432Z,36.00
2022-12-08T05:43:36.591Z,37.05
2022-12-08T05:46:03.829Z,40.90
2022-12-08T05:48:31.174Z,37.53
2022-12-08T05:50:58.336Z,40.60
2022-12-08T05:53:25.725Z,38.50
2022-12-08T05:55:53.481Z,38.38
2022-12-08T05:58:22.473Z,43.70
2022-12-08T06:00:50.532Z,39.38
2022-12-08T06:03:19.642Z,38.90
2022-12-08T06:05:47.613Z,43.97
2022-12-08T06:08:14.850Z,43.70
2022-12-08T06:10:43.628Z,40.47
2022-12-08T06:13:11.131Z,41.55
2022-12-08T06:15:39.017Z,38.70
2022-12-08T06:18:07.342Z,40.47
2022-12-08T06:20:34.787Z,43.53
2022-12-08T06:23:03.381Z,41.72
2022-12-08T06:25:30.690Z,41.72
2022-12-08T06:27:57.777Z,39.22
2022-12-08T06:30:24.983Z,39.78
2022-12-08T06:32:52.064Z,41.28
2022-12-08T06:35:19.216Z,39.72
2022-12-08T06:37:46.338Z,38.95
2022-12-08T06:40:13.904Z,43.17
2022-12-08T06:42:43.628Z,41.80
2022-12-08T06:45:12.826Z,39.63
2022-12-08T06:47:40.263Z,43.67
2022-12-08T06:50:08.551Z,39.97
2022-12-08T06:52:43.170Z,41.40
2022-12-08T06:55:35.361Z,43.42
2022-12-08T06:58:01.721Z,42.47
2022-12-08T07:00:28.827Z,41.72
2022-12-08T07:02:55.955Z,43.60
2022-12-08T07:05:23.087Z,44.33
2022-12-08T07:07:50.256Z,41.42
2022-12-08T07:10:17.644Z,41.15
2022-12-08T07:12:45.319Z,42.38
2022-12-08T07:15:12.490Z,41.25
2022-12-08T07:17:39.572Z,40.33
2022-12-08T07:20:07.743Z,41.70
2022-12-08T07:22:34.956Z,40.35
2022-12-08T07:25:02.024Z,41.60
2022-12-08T07:27:29.177Z,41.17
2022-12-08T07:29:56.271Z,66.13
2022-12-08T07:32:23.398Z,40.83
2022-12-08T07:34:50.489Z,36.28
2022-12-08T07:37:17.568Z,35.13
2022-12-08T07:39:44.725Z,33.97
2022-12-08T07:42:11.816Z,32.92
2022-12-08T07:44:38.896Z,36.75
2022-12-08T07:47:05.957Z,34.53
2022-12-08T07:49:33.196Z,35.00
2022-12-08T07:52:00.308Z,36.85
2022-12-08T07:54:27.986Z,38.50
2022-12-08T07:56:57.832Z,37.22
2022-12-08T07:59:24.986Z,38.08
2022-12-08T08:02:06.562Z,36.75
2022-12-08T08:04:39.221Z,37.30
2022-12-08T08:07:06.322Z,37.83
2022-12-08T08:09:34.152Z,35.92
2022-12-08T08:12:29.615Z,35.80
2022-12-08T08:14:48.413Z,37.78
2022-12-08T08:17:15.663Z,38.40
2022-12-08T08:19:42.859Z,38.42
2022-12-08T08:22:09.960Z,42.03
2022-12-08T08:24:41.572Z,41.50
2022-12-08T08:27:11.993Z,44.45
2022-12-08T08:29:39.117Z,37.60
2022-12-08T08:32:06.214Z,39.92
2022-12-08T08:34:33.365Z,36.60
2022-12-08T08:37:00.620Z,38.60
2022-12-08T08:39:27.795Z,37.63
2022-12-08T08:41:54.874Z,38.72
2022-12-08T08:44:22.064Z,40.30
2022-12-08T08:46:49.214Z,36.92
2022-12-08T08:49:16.345Z,37.75
2022-12-08T08:51:43.802Z,38.40
2022-12-08T08:54:11.053Z,36.85
2022-12-08T08:56:38.118Z,39.40
2022-12-08T08:59:05.262Z,38.03
2022-12-08T09:01:32.537Z,36.65
2022-12-08T09:03:59.786Z,37.47
2022-12-08T09:06:29.114Z,39.03
2022-12-08T09:08:56.471Z,38.08
2022-12-08T09:11:23.661Z,38.08
2022-12-08T09:13:52.138Z,38.88
2022-12-08T09:16:19.856Z,37.08
2022-12-08T09:18:49.237Z,39.22
2022-12-08T09:21:22.710Z,36.50
2022-12-08T09:26:17.812Z,35.10
2022-12-08T09:28:46.557Z,34.78
2022-12-08T09:31:14.614Z,34.90
2022-12-08T09:33:42.009Z,35.58
2022-12-08T09:36:10.211Z,36.15
2022-12-08T09:38:38.431Z,36.75
2022-12-08T09:41:16.155Z,38.35
2022-12-08T09:44:01.972Z,35.67
2022-12-08T09:46:33.805Z,34.88
2022-12-08T09:49:03.362Z,35.47
2022-12-08T09:51:39.236Z,35.40
2022-12-08T09:54:13.212Z,35.83
2022-12-08T09:56:40.505Z,34.85
2022-12-08T09:59:29.421Z,35.63
2022-12-08T10:01:56.610Z,38.40
2022-12-08T10:04:25.627Z,36.53
2022-12-08T10:06:55.760Z,36.55
2022-12-08T10:09:32.177Z,36.38
2022-12-08T10:12:30.131Z,37.90
2022-12-08T10:15:24.744Z,36.70
2022-12-08T10:17:54.188Z,36.28
2022-12-08T10:20:28.251Z,38.35
2022-12-08T10:23:13.629Z,39.22
2022-12-08T10:25:55.522Z,36.45
2022-12-08T10:28:22.613Z,40.05
2022-12-08T10:30:49.769Z,40.58
2022-12-08T10:33:19.551Z,37.85
2022-12-08T10:35:46.636Z,41.90
2022-12-08T10:38:17.483Z,40.55
2022-12-08T10:40:46.805Z,40.05
2022-12-08T10:43:25.602Z,43.58
2022-12-08T10:45:52.761Z,36.72
2022-12-08T10:48:25.886Z,40.97
2022-12-08T10:50:56.625Z,37.85
2022-12-08T10:53:32.039Z,38.55
2022-12-08T10:56:02.137Z,39.10
2022-12-08T10:58:40.757Z,42.17
2022-12-08T11:01:26.737Z,40.92
2022-12-08T11:03:59.690Z,41.42
2022-12-08T11:06:40.830Z,38.67
2022-12-08T11:09:19.802Z,43.17
2022-12-08T11:11:49.766Z,39.63
2022-12-08T11:14:28.490Z,35.67
2022-12-08T11:17:21.663Z,34.25
2022-12-08T11:19:57.868Z,34.90
2022-12-08T11:22:38.339Z,36.35
2022-12-08T11:25:08.203Z,35.08
2022-12-08T11:27:37.308Z,38.42
2022-12-08T11:30:17.765Z,36.50
2022-12-08T11:33:03.478Z,38.60
2022-12-08T11:35:37.100Z,34.08
2022-12-08T11:38:21.543Z,35.63
2022-12-08T11:40:54.146Z,37.45
2022-12-08T11:43:25.680Z,37.65
2022-12-08T11:45:59.854Z,37.25
2022-12-08T11:48:35.539Z,36.78
2022-12-08T11:51:13.778Z,39.20
2022-12-08T11:54:06.949Z,35.15
2022-12-08T11:56:38.275Z,37.42
2022-12-08T11:59:29.575Z,37.78
2022-12-08T12:02:04.585Z,35.50
2022-12-08T12:04:46.109Z,35.42
2022-12-08T12:08:01.029Z,35.03
2022-12-08T12:10:48.483Z,33.38
2022-12-08T12:13:15.498Z,38.90
2022-12-08T12:16:00.788Z,38.95
2022-12-08T12:18:46.505Z,37.75
2022-12-08T12:21:29.241Z,36.55
2022-12-08T12:24:00.941Z,35.80
2022-12-08T12:26:31.066Z,36.45
2022-12-08T12:28:59.892Z,35.65
2022-12-08T12:31:36.798Z,37.38
2022-12-08T12:34:27.455Z,36.08
2022-12-08T12:37:05.546Z,35.80
2022-12-08T12:39:56.104Z,34.17
2022-12-08T12:42:49.219Z,34.60
2022-12-08T12:45:16.320Z,35.22
2022-12-08T12:48:06.484Z,37.63
2022-12-08T12:50:33.840Z,38.13
2022-12-08T12:53:12.358Z,36.83
2022-12-08T12:56:02.373Z,35.55
2022-12-08T12:58:32.079Z,34.75
2022-12-08T13:01:11.515Z,35.60
2022-12-08T13:03:44.021Z,31.60
2022-12-08T13:06:14.760Z,34.78
2022-12-08T13:08:52.278Z,34.50
2022-12-08T13:11:20.064Z,34.35
2022-12-08T13:13:58.680Z,34.67
2022-12-08T13:16:27.992Z,34.45
2022-12-08T13:19:02.355Z,34.35
2022-12-08T13:21:35.924Z,34.80
2022-12-08T13:24:17.755Z,34.92
2022-12-08T13:26:47.364Z,36.63
2022-12-08T13:29:17.318Z,36.60
2022-12-08T13:31:51.073Z,31.77
2022-12-08T13:34:21.376Z,35.28
2022-12-08T13:37:01.901Z,35.75
2022-12-08T13:40:01.659Z,34.72
2022-12-08T13:42:47.365Z,35.08
2022-12-08T13:45:43.563Z,35.08
2022-12-08T13:49:09.533Z,35.17
2022-12-08T13:57:32.895Z,30.52
2022-12-08T14:00:04.397Z,32.10
2022-12-08T14:02:48.163Z,32.58
2022-12-08T14:05:34.583Z,35.00
2022-12-08T14:08:36.363Z,32.72
2022-12-08T14:11:08.136Z,33.50
2022-12-08T14:13:35.322Z,36.50
2022-12-08T14:16:02.589Z,31.48
2022-12-08T14:18:31.484Z,34.03
2022-12-08T14:21:22.245Z,34.17
2022-12-08T14:23:49.431Z,33.90
2022-12-08T14:26:17.878Z,33.80
2022-12-08T14:28:45.503Z,34.45
2022-12-08T14:31:14.375Z,33.72
2022-12-08T14:33:42.475Z,35.13
2022-12-08T14:36:10.849Z,35.38
2022-12-08T14:38:38.187Z,36.30
2022-12-08T14:41:08.627Z,36.78
2022-12-08T14:43:36.146Z,36.40
2022-12-08T14:46:20.682Z,34.67
2022-12-08T14:48:47.918Z,34.80
2022-12-08T14:51:14.976Z,34.75
2022-12-08T14:53:52.221Z,36.08
2022-12-08T14:56:19.768Z,34.38
2022-12-08T14:58:49.006Z,36.45
2022-12-08T15:01:23.321Z,36.03
2022-12-08T15:03:51.649Z,35.22
2022-12-08T15:06:22.226Z,34.92
2022-12-08T15:09:28.913Z,33.33
2022-12-08T15:12:05.281Z,39.90
2022-12-08T15:14:37.881Z,34.60
2022-12-08T15:17:40.101Z,37.97
2022-12-08T15:20:30.024Z,35.20
2022-12-08T15:23:00.479Z,33.65
2022-12-08T15:25:27.590Z,36.92
2022-12-08T15:27:56.383Z,35.90
2022-12-08T15:30:26.337Z,38.55
2022-12-08T15:32:54.202Z,36.55
2022-12-08T15:35:21.524Z,36.20
2022-12-08T15:37:48.622Z,37.58
2022-12-08T15:40:21.620Z,37.50
2022-12-08T15:42:49.377Z,38.63
2022-12-08T15:45:17.244Z,36.47
2022-12-08T15:47:45.409Z,36.88
2022-12-08T15:50:20.828Z,39.78
2022-12-08T15:52:48.882Z,37.83
2022-12-08T15:55:18.308Z,38.95
2022-12-08T16:00:54.156Z,36.42
2022-12-08T16:04:13.866Z,43.40
2022-12-08T16:09:16.783Z,38.67
2022-12-08T16:12:08.485Z,35.92
2022-12-08T16:17:25.631Z,34.63
2022-12-08T16:19:53.313Z,35.53
2022-12-08T16:25:21.352Z,34.42
2022-12-08T16:28:08.195Z,35.75
2022-12-08T16:30:39.927Z,35.20
2022-12-08T16:33:07.228Z,38.83
2022-12-08T16:35:34.420Z,39.00
2022-12-08T16:38:01.617Z,37.10
2022-12-08T16:40:28.992Z,38.42
2022-12-08T16:42:56.108Z,36.22
2022-12-08T16:45:26.056Z,35.60
2022-12-08T16:47:57.459Z,38.22
2022-12-08T16:50:26.594Z,35.20
2022-12-08T16:53:05.757Z,34.45
2022-12-08T16:55:33.908Z,34.38
2022-12-08T16:58:02.694Z,38.05
2022-12-08T17:00:31.571Z,34.70
2022-12-08T17:02:58.947Z,33.63
2022-12-08T17:05:26.646Z,36.58
2022-12-08T17:07:54.411Z,35.15
2022-12-08T17:10:25.080Z,31.17
2022-12-08T17:12:52.310Z,33.40
2022-12-08T17:15:21.756Z,34.58
2022-12-08T17:17:49.176Z,38.92
2022-12-08T17:20:19.405Z,37.13
2022-12-08T17:22:47.367Z,35.30
2022-12-08T17:25:15.021Z,33.25
2022-12-08T17:27:42.674Z,32.83
2022-12-08T17:30:11.790Z,34.38
2022-12-08T17:32:39.063Z,33.30
2022-12-08T17:35:07.301Z,35.08
2022-12-08T17:37:34.724Z,33.70
2022-12-08T17:40:01.901Z,32.88
2022-12-08T17:42:29.070Z,35.05
2022-12-08T17:44:56.164Z,34.05
2022-12-08T17:47:23.305Z,32.03
2022-12-08T17:49:50.585Z,32.28
2022-12-08T17:52:17.767Z,31.15
2022-12-08T17:54:44.861Z,34.05
2022-12-08T17:57:12.064Z,33.85
2022-12-08T17:59:39.145Z,35.90
2022-12-08T18:02:06.765Z,35.15
2022-12-08T18:04:33.867Z,31.25
2022-12-08T18:07:01.384Z,31.55
2022-12-08T18:09:30.714Z,37.30
2022-12-08T18:11:58.054Z,36.00
2022-12-08T18:14:25.758Z,31.58
2022-12-08T18:16:52.937Z,32.03
2022-12-08T18:19:20.080Z,30.88
2022-12-08T18:21:47.294Z,31.92
2022-12-08T18:24:18.809Z,32.75
2022-12-08T18:26:46.987Z,37.03
2022-12-08T18:29:14.165Z,33.22
2022-12-08T18:31:41.268Z,33.00
2022-12-08T18:34:08.347Z,33.38
2022-12-08T18:36:35.474Z,33.10
2022-12-08T18:39:08.785Z,34.15
2022-12-08T18:41:37.793Z,31.48
2022-12-08T18:44:04.986Z,33.33
2022-12-08T18:46:32.149Z,34.17
2022-12-08T18:48:59.414Z,31.70
2022-12-08T18:51:26.802Z,31.95
2022-12-08T18:53:54.012Z,29.95
2022-12-08T18:56:31.013Z,32.95
2022-12-08T18:59:03.931Z,32.88
2022-12-08T19:01:36.832Z,34.50
2022-12-08T19:06:54.503Z,34.10
2022-12-08T19:09:22.325Z,31.05
2022-12-08T19:11:49.572Z,32.85
2022-12-08T19:14:16.700Z,33.28
2022-12-08T19:16:43.829Z,31.85
2022-12-08T19:19:10.907Z,31.27
2022-12-08T19:21:44.507Z,34.42
2022-12-08T19:24:13.136Z,35.40
2022-12-08T19:26:40.520Z,34.38
2022-12-08T19:29:08.030Z,32.80
2022-12-08T19:31:35.477Z,36.28
2022-12-08T19:34:03.240Z,33.30
2022-12-08T19:36:35.295Z,35.85
2022-12-08T19:39:22.238Z,32.13
2022-12-08T19:42:09.269Z,32.35
2022-12-08T19:44:54.332Z,33.80
2022-12-08T19:47:24.770Z,35.47
2022-12-08T19:49:54.966Z,36.95
2022-12-08T19:52:22.295Z,34.13
2022-12-08T19:54:49.415Z,37.53
2022-12-08T19:57:16.609Z,36.30
2022-12-08T19:59:43.728Z,33.45
2022-12-08T20:02:11.305Z,34.38
2022-12-08T20:04:38.511Z,35.28
2022-12-08T20:07:05.659Z,37.13
2022-12-08T20:09:32.820Z,34.70
2022-12-08T20:11:59.944Z,35.90
2022-12-08T20:14:27.045Z,33.22
2022-12-08T20:16:54.232Z,35.92
2022-12-08T20:19:21.448Z,36.75
2022-12-08T20:21:48.849Z,38.05
2022-12-08T20:24:17.163Z,35.92
2022-12-08T20:26:44.365Z,39.08
2022-12-08T20:29:12.017Z,41.03
2022-12-08T20:31:39.245Z,39.97
2022-12-08T20:34:06.410Z,35.35
2022-12-08T20:36:33.515Z,35.30
2022-12-08T20:39:00.686Z,39.47
2022-12-08T20:41:27.778Z,35.00
2022-12-08T20:43:55.016Z,36.70
2022-12-08T20:46:22.280Z,36.85
2022-12-08T20:48:49.735Z,35.03
2022-12-08T20:51:18.613Z,36.45
2022-12-08T20:53:46.821Z,34.45
2022-12-08T20:56:19.177Z,37.15
2022-12-08T20:58:46.995Z,35.75
2022-12-08T21:01:16.713Z,35.72
2022-12-08T21:03:45.292Z,35.63
2022-12-08T21:06:13.435Z,37.67
2022-12-08T21:08:41.847Z,41.58
2022-12-08T21:11:10.301Z,39.85
2022-12-08T21:13:38.533Z,38.45
2022-12-08T21:16:09.154Z,37.72
2022-12-08T21:18:39.600Z,35.38
2022-12-08T21:21:10.349Z,36.85
2022-12-08T21:23:37.566Z,36.72
2022-12-08T21:26:13.736Z,36.72
2022-12-08T21:28:41.619Z,39.67
2022-12-08T21:31:14.395Z,41.35
2022-12-08T21:33:41.805Z,43.50
2022-12-08T21:36:12.755Z,42.20
2022-12-08T21:38:40.839Z,44.38
2022-12-08T21:41:11.006Z,42.60
2022-12-08T21:43:38.419Z,38.10
2022-12-08T21:46:05.707Z,38.50
2022-12-08T21:48:33.462Z,40.28
2022-12-08T21:51:05.352Z,38.88
2022-12-08T21:53:32.701Z,36.33
2022-12-08T21:55:59.827Z,42.00
2022-12-08T21:58:27.139Z,37.85
2022-12-08T22:00:54.320Z,37.78
2022-12-08T22:03:21.848Z,39.05
2022-12-08T22:05:49.103Z,38.53
2022-12-08T22:08:16.418Z,40.38
2022-12-08T22:10:48.035Z,37.97
2022-12-08T22:13:15.182Z,38.45
2022-12-08T22:15:42.319Z,35.08
2022-12-08T22:18:11.292Z,49.95
2022-12-08T22:20:43.819Z,37.97
2022-12-08T22:23:11.882Z,39.03
2022-12-08T22:25:40.243Z,38.22
2022-12-08T22:28:07.361Z,37.78
2022-12-08T22:30:39.044Z,39.03
2022-12-08T22:33:06.672Z,36.63
2022-12-08T22:35:33.784Z,37.30
2022-12-08T22:38:01.057Z,37.83
2022-12-08T22:40:28.322Z,38.35
2022-12-08T22:42:55.521Z,36.45
2022-12-08T22:45:22.823Z,38.05
2022-12-08T22:47:50.204Z,37.88
2022-12-08T22:50:17.316Z,35.72
2022-12-08T22:52:44.414Z,36.60
2022-12-08T22:55:11.480Z,37.20
2022-12-08T22:57:38.784Z,39.88
2022-12-08T23:00:09.904Z,37.33
2022-12-08T23:02:38.256Z,38.60
2022-12-08T23:05:05.972Z,38.83
2022-12-08T23:07:33.211Z,38.17
2022-12-08T23:10:00.556Z,37.05
2022-12-08T23:12:27.727Z,39.60
2022-12-08T23:14:55.031Z,38.13
2022-12-08T23:17:22.290Z,35.75
2022-12-08T23:19:49.439Z,37.88
2022-12-08T23:22:16.770Z,37.13
2022-12-08T23:24:43.846Z,39.88
2022-12-08T23:27:10.928Z,38.90
2022-12-08T23:29:38.017Z,37.78
2022-12-08T23:32:06.659Z,36.78
2022-12-08T23:34:34.068Z,35.58
2022-12-08T23:37:01.293Z,35.00
2022-12-08T23:39:29.374Z,35.15
2022-12-08T23:41:56.505Z,35.30
2022-12-08T23:44:23.913Z,36.17
2022-12-08T23:46:51.164Z,34.10
2022-12-08T23:49:18.378Z,39.58
2022-12-08T23:51:45.484Z,39.13
2022-12-08T23:54:12.882Z,37.95
2022-12-08T23:56:41.273Z,36.35
2022-12-08T23:59:08.747Z,40.35
